sensor_id;sensor_type;location;lat;lon;timestamp;pressure;altitude;pressure_sealevel;temperature;humidity
63439;BME280;49567;48.958;8.294;2023-03-24T00:01:13;99377.66;;;14.53;75.27
63439;BME280;49567;48.958;8.294;2023-03-24T00:03:39;99364.63;;;14.50;75.28
63439;BME280;49567;48.958;8.294;2023-03-24T00:06:05;99356.16;;;14.52;75.91
63439;BME280;49567;48.958;8.294;2023-03-24T00:08:33;99350.47;;;14.48;75.97
63439;BME280;49567;48.958;8.294;2023-03-24T00:11:05;99349.94;;;14.46;76.30
63439;BME280;49567;48.958;8.294;2023-03-24T00:13:34;99343.47;;;14.42;76.53
63439;BME280;49567;48.958;8.294;2023-03-24T00:16:11;99343.47;;;14.42;76.58
63439;BME280;49567;48.958;8.294;2023-03-24T00:18:37;99333.69;;;14.41;76.75
63439;BME280;49567;48.958;8.294;2023-03-24T00:21:04;99327.72;;;14.39;76.66
63439;BME280;49567;48.958;8.294;2023-03-24T00:23:30;99329.94;;;14.37;76.69
63439;BME280;49567;48.958;8.294;2023-03-24T00:26:10;99322.25;;;14.39;76.97
63439;BME280;49567;48.958;8.294;2023-03-24T00:28:42;99312.75;;;14.37;77.01
63439;BME280;49567;48.958;8.294;2023-03-24T00:31:08;99319.53;;;14.39;76.88
63439;BME280;49567;48.958;8.294;2023-03-24T00:33:34;99306.50;;;14.36;77.05
63439;BME280;49567;48.958;8.294;2023-03-24T00:36:06;99299.75;;;14.34;77.37
63439;BME280;49567;48.958;8.294;2023-03-24T00:38:34;99296.19;;;14.33;77.41
63439;BME280;49567;48.958;8.294;2023-03-24T00:41:01;99294.56;;;14.32;77.38
63439;BME280;49567;48.958;8.294;2023-03-24T00:43:27;99287.50;;;14.31;77.67
63439;BME280;49567;48.958;8.294;2023-03-24T00:46:04;99275.50;;;14.32;77.55
63439;BME280;49567;48.958;8.294;2023-03-24T00:48:30;99285.84;;;14.30;77.77
63439;BME280;49567;48.958;8.294;2023-03-24T00:51:02;99276.06;;;14.29;77.56
63439;BME280;49567;48.958;8.294;2023-03-24T00:53:28;99254.25;;;14.29;77.48
63439;BME280;49567;48.958;8.294;2023-03-24T00:55:54;99264.88;;;14.31;77.50
63439;BME280;49567;48.958;8.294;2023-03-24T00:58:20;99255.88;;;14.30;77.83
63439;BME280;49567;48.958;8.294;2023-03-24T01:00:48;99260.38;;;14.40;77.09
63439;BME280;49567;48.958;8.294;2023-03-24T01:03:14;99256.56;;;14.41;77.68
63439;BME280;49567;48.958;8.294;2023-03-24T01:05:40;99252.72;;;14.42;77.58
63439;BME280;49567;48.958;8.294;2023-03-24T01:08:06;99259.28;;;14.41;77.58
63439;BME280;49567;48.958;8.294;2023-03-24T01:10:36;99256.56;;;14.41;77.80
63439;BME280;49567;48.958;8.294;2023-03-24T01:13:16;99255.47;;;14.42;78.06
63439;BME280;49567;48.958;8.294;2023-03-24T01:15:41;99252.72;;;14.42;78.15
63439;BME280;49567;48.958;8.294;2023-03-24T01:18:07;99259.88;;;14.38;78.09
63439;BME280;49567;48.958;8.294;2023-03-24T01:20:34;99246.84;;;14.35;78.25
63439;BME280;49567;48.958;8.294;2023-03-24T01:23:01;99249.88;;;14.33;78.34
63439;BME280;49567;48.958;8.294;2023-03-24T01:25:29;99249.34;;;14.31;78.56
63439;BME280;49567;48.958;8.294;2023-03-24T01:27:55;99245.78;;;14.31;78.45
63439;BME280;49567;48.958;8.294;2023-03-24T01:30:25;99236.81;;;14.30;78.51
63439;BME280;49567;48.958;8.294;2023-03-24T01:32:51;99235.19;;;14.29;78.75
63439;BME280;49567;48.958;8.294;2023-03-24T01:35:18;99233.28;;;14.30;78.94
63439;BME280;49567;48.958;8.294;2023-03-24T01:37:43;99231.34;;;14.30;78.79
63439;BME280;49567;48.958;8.294;2023-03-24T01:40:13;99236.53;;;14.32;78.73
63439;BME280;49567;48.958;8.294;2023-03-24T01:42:40;99230.78;;;14.33;78.68
63439;BME280;49567;48.958;8.294;2023-03-24T01:48:14;99226.38;;;14.37;78.54
63439;BME280;49567;48.958;8.294;2023-03-24T01:50:43;99232.13;;;14.49;78.19
63439;BME280;49567;48.958;8.294;2023-03-24T01:53:10;99222.81;;;14.37;78.33
63439;BME280;49567;48.958;8.294;2023-03-24T01:55:36;99206.19;;;14.38;78.15
63439;BME280;49567;48.958;8.294;2023-03-24T01:58:02;99215.19;;;14.39;78.46
63439;BME280;49567;48.958;8.294;2023-03-24T02:00:28;99212.72;;;14.37;78.29
63439;BME280;49567;48.958;8.294;2023-03-24T02:03:00;99208.38;;;14.36;78.42
63439;BME280;49567;48.958;8.294;2023-03-24T02:05:31;99224.44;;;14.38;78.25
63439;BME280;49567;48.958;8.294;2023-03-24T02:08:21;99213.34;;;14.34;78.38
63439;BME280;49567;48.958;8.294;2023-03-24T02:10:49;99216.63;;;14.31;78.35
63439;BME280;49567;48.958;8.294;2023-03-24T02:13:16;99218.25;;;14.32;78.20
63439;BME280;49567;48.958;8.294;2023-03-24T02:15:51;99212.00;;;14.32;78.46
63439;BME280;49567;48.958;8.294;2023-03-24T02:18:29;99218.34;;;14.27;78.68
63439;BME280;49567;48.958;8.294;2023-03-24T02:24:36;99211.25;;;14.26;78.79
63439;BME280;49567;48.958;8.294;2023-03-24T02:27:20;99200.88;;;14.28;78.41
63439;BME280;49567;48.958;8.294;2023-03-24T02:30:02;99205.81;;;14.26;78.63
63439;BME280;49567;48.958;8.294;2023-03-24T02:38:26;99196.31;;;14.24;78.47
63439;BME280;49567;48.958;8.294;2023-03-24T02:41:10;99184.53;;;14.28;78.10
63439;BME280;49567;48.958;8.294;2023-03-24T02:44:07;99191.09;;;14.27;77.57
63439;BME280;49567;48.958;8.294;2023-03-24T02:46:41;99175.44;;;14.19;77.86
63439;BME280;49567;48.958;8.294;2023-03-24T02:49:24;99171.16;;;14.13;78.22
63439;BME280;49567;48.958;8.294;2023-03-24T02:52:27;99170.44;;;14.08;78.24
63439;BME280;49567;48.958;8.294;2023-03-24T02:55:08;99159.94;;;14.01;78.97
63439;BME280;49567;48.958;8.294;2023-03-24T02:57:55;99156.72;;;13.99;79.11
63439;BME280;49567;48.958;8.294;2023-03-24T03:00:34;99157.16;;;13.87;79.52
63439;BME280;49567;48.958;8.294;2023-03-24T03:05:55;99163.53;;;13.96;79.39
63439;BME280;49567;48.958;8.294;2023-03-24T03:08:24;99154.00;;;13.99;79.32
63439;BME280;49567;48.958;8.294;2023-03-24T03:10:52;99158.03;;;14.01;79.07
63439;BME280;49567;48.958;8.294;2023-03-24T03:13:31;99160.44;;;14.03;79.18
63439;BME280;49567;48.958;8.294;2023-03-24T03:16:03;99160.16;;;14.04;79.01
63439;BME280;49567;48.958;8.294;2023-03-24T03:18:39;99163.38;;;14.07;79.09
63439;BME280;49567;48.958;8.294;2023-03-24T03:21:12;99167.22;;;14.06;79.23
63439;BME280;49567;48.958;8.294;2023-03-24T03:23:43;99162.88;;;14.04;79.49
63439;BME280;49567;48.958;8.294;2023-03-24T03:26:17;99165.31;;;14.06;79.11
63439;BME280;49567;48.958;8.294;2023-03-24T03:28:46;99169.94;;;14.06;79.59
63439;BME280;49567;48.958;8.294;2023-03-24T03:31:18;99181.34;;;14.08;79.53
63439;BME280;49567;48.958;8.294;2023-03-24T03:33:53;99191.34;;;14.12;79.02
63439;BME280;49567;48.958;8.294;2023-03-24T03:36:27;99203.56;;;14.15;78.45
63439;BME280;49567;48.958;8.294;2023-03-24T03:39:11;99201.06;;;14.18;78.22
63439;BME280;49567;48.958;8.294;2023-03-24T03:41:41;99201.66;;;14.15;77.74
63439;BME280;49567;48.958;8.294;2023-03-24T03:44:06;99210.84;;;14.19;77.11
63439;BME280;49567;48.958;8.294;2023-03-24T03:46:33;99205.91;;;14.21;76.14
63439;BME280;49567;48.958;8.294;2023-03-24T03:48:59;99210.75;;;14.24;75.83
63439;BME280;49567;48.958;8.294;2023-03-24T03:51:24;99231.47;;;14.25;75.12
63439;BME280;49567;48.958;8.294;2023-03-24T03:53:53;99222.97;;;14.27;74.72
63439;BME280;49567;48.958;8.294;2023-03-24T03:56:23;99225.19;;;14.25;73.79
63439;BME280;49567;48.958;8.294;2023-03-24T03:58:49;99228.72;;;14.25;73.35
63439;BME280;49567;48.958;8.294;2023-03-24T04:01:17;99239.84;;;14.29;73.12
63439;BME280;49567;48.958;8.294;2023-03-24T04:04:08;99249.94;;;14.28;72.52
63439;BME280;49567;48.958;8.294;2023-03-24T04:06:40;99244.56;;;14.42;72.01
63439;BME280;49567;48.958;8.294;2023-03-24T04:11:58;99259.50;;;14.44;71.75
63439;BME280;49567;48.958;8.294;2023-03-24T04:14:48;99256.25;;;14.42;71.84
63439;BME280;49567;48.958;8.294;2023-03-24T04:17:44;99266.06;;;14.43;71.79
63439;BME280;49567;48.958;8.294;2023-03-24T04:20:15;99273.34;;;14.48;71.38
63439;BME280;49567;48.958;8.294;2023-03-24T04:25:31;99296.75;;;14.49;71.45
63439;BME280;49567;48.958;8.294;2023-03-24T04:28:27;99303.53;;;14.51;71.59
63439;BME280;49567;48.958;8.294;2023-03-24T04:31:03;99296.19;;;14.52;72.14
63439;BME280;49567;48.958;8.294;2023-03-24T04:36:11;99323.00;;;14.45;76.35
63439;BME280;49567;48.958;8.294;2023-03-24T04:38:44;99327.44;;;14.41;77.69
63439;BME280;49567;48.958;8.294;2023-03-24T04:41:13;99333.25;;;14.34;78.73
63439;BME280;49567;48.958;8.294;2023-03-24T04:43:42;99339.56;;;14.30;79.90
63439;BME280;49567;48.958;8.294;2023-03-24T04:46:08;99338.84;;;14.24;80.79
63439;BME280;49567;48.958;8.294;2023-03-24T04:48:34;99349.50;;;14.21;81.63
63439;BME280;49567;48.958;8.294;2023-03-24T04:51:00;99353.03;;;14.21;82.09
63439;BME280;49567;48.958;8.294;2023-03-24T04:53:27;99353.41;;;14.15;83.07
63439;BME280;49567;48.958;8.294;2023-03-24T04:55:59;99353.78;;;14.08;83.82
63439;BME280;49567;48.958;8.294;2023-03-24T04:58:28;99350.84;;;14.04;84.65
63439;BME280;49567;48.958;8.294;2023-03-24T05:00:54;99346.72;;;14.07;84.99
63439;BME280;49567;48.958;8.294;2023-03-24T05:03:21;99347.03;;;14.06;84.74
63439;BME280;49567;48.958;8.294;2023-03-24T05:05:48;99348.94;;;14.05;85.25
63439;BME280;49567;48.958;8.294;2023-03-24T05:08:15;99354.81;;;14.12;85.10
63439;BME280;49567;48.958;8.294;2023-03-24T05:10:40;99354.50;;;14.14;85.01
63439;BME280;49567;48.958;8.294;2023-03-24T05:13:06;99348.84;;;14.10;85.24
63439;BME280;49567;48.958;8.294;2023-03-24T05:15:32;99357.31;;;14.09;85.64
63439;BME280;49567;48.958;8.294;2023-03-24T05:17:58;99346.66;;;14.12;85.48
63439;BME280;49567;48.958;8.294;2023-03-24T05:20:23;99348.78;;;14.15;85.23
63439;BME280;49567;48.958;8.294;2023-03-24T05:22:49;99348.25;;;14.13;85.53
63439;BME280;49567;48.958;8.294;2023-03-24T05:25:16;99348.47;;;14.17;85.34
63439;BME280;49567;48.958;8.294;2023-03-24T05:27:42;99354.47;;;14.19;85.19
63439;BME280;49567;48.958;8.294;2023-03-24T05:30:08;99346.34;;;14.14;85.89
63439;BME280;49567;48.958;8.294;2023-03-24T05:32:34;99352.59;;;14.14;85.67
63439;BME280;49567;48.958;8.294;2023-03-24T05:34:59;99349.06;;;14.14;85.57
63439;BME280;49567;48.958;8.294;2023-03-24T05:37:25;99349.06;;;14.14;85.76
63439;BME280;49567;48.958;8.294;2023-03-24T05:39:51;99328.16;;;14.09;86.06
63439;BME280;49567;48.958;8.294;2023-03-24T05:42:17;99343.63;;;14.14;85.75
63439;BME280;49567;48.958;8.294;2023-03-24T05:44:42;99349.81;;;14.19;85.52
63439;BME280;49567;48.958;8.294;2023-03-24T05:47:08;99332.94;;;14.17;85.92
63439;BME280;49567;48.958;8.294;2023-03-24T05:49:33;99330.00;;;14.14;86.21
63439;BME280;49567;48.958;8.294;2023-03-24T05:51:58;99325.13;;;14.11;86.50
63439;BME280;49567;48.958;8.294;2023-03-24T05:54:24;99324.75;;;14.17;86.13
63439;BME280;49567;48.958;8.294;2023-03-24T05:56:50;99324.91;;;14.26;85.73
63439;BME280;49567;48.958;8.294;2023-03-24T05:59:15;99316.94;;;14.29;85.74
63439;BME280;49567;48.958;8.294;2023-03-24T06:01:41;99317.47;;;14.31;85.47
63439;BME280;49567;48.958;8.294;2023-03-24T06:04:07;99309.81;;;14.33;85.33
63439;BME280;49567;48.958;8.294;2023-03-24T06:06:33;99299.44;;;14.35;85.52
63439;BME280;49567;48.958;8.294;2023-03-24T06:08:58;99302.97;;;14.36;85.11
63439;BME280;49567;48.958;8.294;2023-03-24T06:11:26;99303.28;;;14.34;85.12
63439;BME280;49567;48.958;8.294;2023-03-24T06:13:52;99300.56;;;14.34;85.22
63439;BME280;49567;48.958;8.294;2023-03-24T06:16:17;99314.44;;;14.33;85.13
63439;BME280;49567;48.958;8.294;2023-03-24T06:18:43;99325.66;;;14.31;85.03
63439;BME280;49567;48.958;8.294;2023-03-24T06:21:16;99326.75;;;14.30;85.12
63439;BME280;49567;48.958;8.294;2023-03-24T06:23:42;99323.50;;;14.28;85.21
63439;BME280;49567;48.958;8.294;2023-03-24T06:26:09;99330.06;;;14.27;85.25
63439;BME280;49567;48.958;8.294;2023-03-24T06:28:36;99339.88;;;14.28;84.90
63439;BME280;49567;48.958;8.294;2023-03-24T06:31:04;99341.28;;;14.26;84.75
63439;BME280;49567;48.958;8.294;2023-03-24T06:33:31;99349.22;;;14.22;85.04
63439;BME280;49567;48.958;8.294;2023-03-24T06:35:56;99347.97;;;14.15;85.30
63439;BME280;49567;48.958;8.294;2023-03-24T06:38:21;99357.56;;;14.12;85.32
63439;BME280;49567;48.958;8.294;2023-03-24T06:40:47;99365.72;;;14.12;85.22
63439;BME280;49567;48.958;8.294;2023-03-24T06:43:12;99367.09;;;14.10;85.48
63439;BME280;49567;48.958;8.294;2023-03-24T06:45:37;99370.34;;;14.12;85.23
63439;BME280;49567;48.958;8.294;2023-03-24T06:48:04;99366.31;;;14.09;85.64
63439;BME280;49567;48.958;8.294;2023-03-24T06:50:29;99371.75;;;14.09;85.59
63439;BME280;49567;48.958;8.294;2023-03-24T06:52:59;99383.16;;;14.11;85.79
63439;BME280;49567;48.958;8.294;2023-03-24T06:55:25;99387.28;;;14.09;85.90
63439;BME280;49567;48.958;8.294;2023-03-24T06:57:50;99394.94;;;14.07;86.08
63439;BME280;49567;48.958;8.294;2023-03-24T07:00:15;99402.31;;;14.06;86.40
63439;BME280;49567;48.958;8.294;2023-03-24T07:02:41;99400.09;;;14.08;86.71
63439;BME280;49567;48.958;8.294;2023-03-24T07:05:07;99401.19;;;14.07;86.61
63439;BME280;49567;48.958;8.294;2023-03-24T07:07:34;99399.38;;;14.02;87.03
63439;BME280;49567;48.958;8.294;2023-03-24T07:10:00;99414.59;;;14.03;86.89
63439;BME280;49567;48.958;8.294;2023-03-24T07:12:25;99421.44;;;14.01;87.27
63439;BME280;49567;48.958;8.294;2023-03-24T07:14:51;99401.28;;;14.02;87.46
63439;BME280;49567;48.958;8.294;2023-03-24T07:17:16;99402.97;;;13.98;87.86
63439;BME280;49567;48.958;8.294;2023-03-24T07:19:42;99414.94;;;13.97;87.76
63439;BME280;49567;48.958;8.294;2023-03-24T07:22:09;99424.25;;;13.96;87.94
63439;BME280;49567;48.958;8.294;2023-03-24T07:24:34;99419.88;;;13.95;88.28
63439;BME280;49567;48.958;8.294;2023-03-24T07:27:00;99420.41;;;13.97;88.33
63439;BME280;49567;48.958;8.294;2023-03-24T07:29:25;99416.13;;;13.91;88.55
63439;BME280;49567;48.958;8.294;2023-03-24T07:31:51;99414.50;;;13.90;88.83
63439;BME280;49567;48.958;8.294;2023-03-24T07:34:17;99410.22;;;13.84;89.30
63439;BME280;49567;48.958;8.294;2023-03-24T07:36:42;99403.69;;;13.85;89.21
63439;BME280;49567;48.958;8.294;2023-03-24T07:39:07;99406.31;;;13.90;89.62
63439;BME280;49567;48.958;8.294;2023-03-24T07:41:33;99404.50;;;13.85;90.00
63439;BME280;49567;48.958;8.294;2023-03-24T07:43:58;99396.25;;;13.90;90.18
63439;BME280;49567;48.958;8.294;2023-03-24T07:46:24;99397.88;;;13.91;90.03
63439;BME280;49567;48.958;8.294;2023-03-24T07:48:49;99387.47;;;13.93;90.36
63439;BME280;49567;48.958;8.294;2023-03-24T07:51:14;99380.34;;;13.97;90.39
63439;BME280;49567;48.958;8.294;2023-03-24T07:53:41;99353.97;;;13.93;90.65
63439;BME280;49567;48.958;8.294;2023-03-24T07:56:09;99316.66;;;13.93;90.65
63439;BME280;49567;48.958;8.294;2023-03-24T07:58:34;99344.28;;;14.06;90.82
63439;BME280;49567;48.958;8.294;2023-03-24T08:01:00;99389.34;;;14.17;89.98
63439;BME280;49567;48.958;8.294;2023-03-24T08:03:25;99380.34;;;14.16;89.80
63439;BME280;49567;48.958;8.294;2023-03-24T08:05:52;99371.44;;;14.11;89.91
63439;BME280;49567;48.958;8.294;2023-03-24T08:08:19;99368.94;;;14.14;89.93
63439;BME280;49567;48.958;8.294;2023-03-24T08:10:44;99374.84;;;14.21;89.91
63439;BME280;49567;48.958;8.294;2023-03-24T08:13:10;99379.84;;;14.33;89.48
63439;BME280;49567;48.958;8.294;2023-03-24T08:15:35;99365.59;;;14.41;88.71
63439;BME280;49567;48.958;8.294;2023-03-24T08:18:02;99382.16;;;14.44;88.67
63439;BME280;49567;48.958;8.294;2023-03-24T08:20:27;99385.75;;;14.40;88.55
63439;BME280;49567;48.958;8.294;2023-03-24T08:22:54;99367.00;;;14.38;88.59
63439;BME280;49567;48.958;8.294;2023-03-24T08:25:21;99379.13;;;14.46;88.22
63439;BME280;49567;48.958;8.294;2023-03-24T08:27:47;99356.44;;;14.50;87.97
63439;BME280;49567;48.958;8.294;2023-03-24T08:30:18;99372.88;;;14.45;87.92
63439;BME280;49567;48.958;8.294;2023-03-24T08:32:47;99380.75;;;14.47;87.79
63439;BME280;49567;48.958;8.294;2023-03-24T08:35:13;99384.28;;;14.47;87.31
63439;BME280;49567;48.958;8.294;2023-03-24T08:37:40;99380.47;;;14.48;86.91
63439;BME280;49567;48.958;8.294;2023-03-24T08:40:11;99386.66;;;14.54;86.92
63439;BME280;49567;48.958;8.294;2023-03-24T08:42:38;99388.13;;;14.65;86.11
63439;BME280;49567;48.958;8.294;2023-03-24T08:45:04;99387.78;;;14.67;85.86
63439;BME280;49567;48.958;8.294;2023-03-24T08:47:30;99386.97;;;14.66;85.80
63439;BME280;49567;48.958;8.294;2023-03-24T08:49:56;99384.25;;;14.66;85.96
63439;BME280;49567;48.958;8.294;2023-03-24T08:52:24;99373.88;;;14.68;85.64
63439;BME280;49567;48.958;8.294;2023-03-24T08:54:50;99390.25;;;14.68;85.61
63439;BME280;49567;48.958;8.294;2023-03-24T08:57:16;99375.31;;;14.79;85.24
63439;BME280;49567;48.958;8.294;2023-03-24T08:59:42;99399.09;;;14.92;84.86
63439;BME280;49567;48.958;8.294;2023-03-24T09:02:10;99392.09;;;14.86;85.11
63439;BME280;49567;48.958;8.294;2023-03-24T09:04:35;99396.91;;;14.76;85.78
63439;BME280;49567;48.958;8.294;2023-03-24T09:07:01;99387.41;;;14.73;86.38
63439;BME280;49567;48.958;8.294;2023-03-24T09:09:28;99386.44;;;14.83;86.28
63439;BME280;49567;48.958;8.294;2023-03-24T09:11:53;99386.97;;;14.98;85.75
63439;BME280;49567;48.958;8.294;2023-03-24T09:14:18;99381.06;;;15.10;85.63
63439;BME280;49567;48.958;8.294;2023-03-24T09:16:46;99391.88;;;15.15;85.26
63439;BME280;49567;48.958;8.294;2023-03-24T09:19:12;99379.78;;;15.21;85.00
63439;BME280;49567;48.958;8.294;2023-03-24T09:21:38;99371.88;;;15.20;85.13
63439;BME280;49567;48.958;8.294;2023-03-24T09:24:03;99368.31;;;15.19;84.98
63439;BME280;49567;48.958;8.294;2023-03-24T09:26:29;99381.47;;;15.17;84.91
63439;BME280;49567;48.958;8.294;2023-03-24T09:28:54;99391.25;;;15.18;84.62
63439;BME280;49567;48.958;8.294;2023-03-24T09:31:19;99376.31;;;15.16;84.69
63439;BME280;49567;48.958;8.294;2023-03-24T09:33:45;99369.13;;;15.20;84.46
63439;BME280;49567;48.958;8.294;2023-03-24T09:36:11;99366.84;;;15.27;84.24
63439;BME280;49567;48.958;8.294;2023-03-24T09:38:36;99374.41;;;15.30;83.56
63439;BME280;49567;48.958;8.294;2023-03-24T09:41:02;99367.75;;;15.36;83.12
63439;BME280;49567;48.958;8.294;2023-03-24T09:43:41;99361.28;;;15.45;82.36
63439;BME280;49567;48.958;8.294;2023-03-24T09:46:14;99369.91;;;15.52;81.20
63439;BME280;49567;48.958;8.294;2023-03-24T09:48:50;99372.63;;;15.52;80.89
63439;BME280;49567;48.958;8.294;2023-03-24T09:51:21;99372.94;;;15.51;80.79
63439;BME280;49567;48.958;8.294;2023-03-24T09:56:31;99373.91;;;15.28;80.44
63439;BME280;49567;48.958;8.294;2023-03-24T10:01:34;99367.31;;;15.15;79.88
63439;BME280;49567;48.958;8.294;2023-03-24T10:04:03;99369.03;;;15.11;80.19
63439;BME280;49567;48.958;8.294;2023-03-24T10:06:37;99372.69;;;15.20;79.76
63439;BME280;49567;48.958;8.294;2023-03-24T10:09:28;99369.78;;;15.44;79.30
63439;BME280;49567;48.958;8.294;2023-03-24T10:12:10;99380.22;;;15.55;78.20
63439;BME280;49567;48.958;8.294;2023-03-24T10:25:49;99403.47;;;15.53;76.61
63439;BME280;49567;48.958;8.294;2023-03-24T10:28:37;99407.03;;;15.67;76.24
63439;BME280;49567;48.958;8.294;2023-03-24T10:31:09;99396.00;;;15.86;75.15
63439;BME280;49567;48.958;8.294;2023-03-24T10:33:39;99402.88;;;15.97;74.40
63439;BME280;49567;48.958;8.294;2023-03-24T10:36:17;99408.47;;;16.28;73.71
63439;BME280;49567;48.958;8.294;2023-03-24T10:38:44;99414.03;;;16.36;72.81
63439;BME280;49567;48.958;8.294;2023-03-24T10:41:24;99408.09;;;16.56;72.30
63439;BME280;49567;48.958;8.294;2023-03-24T10:43:51;99411.69;;;17.10;70.58
63439;BME280;49567;48.958;8.294;2023-03-24T10:46:24;99411.66;;;17.01;69.94
63439;BME280;49567;48.958;8.294;2023-03-24T10:48:52;99421.00;;;16.78;70.66
63439;BME280;49567;48.958;8.294;2023-03-24T10:51:23;99423.28;;;16.85;70.25
63439;BME280;49567;48.958;8.294;2023-03-24T10:53:50;99430.94;;;16.96;70.23
63439;BME280;49567;48.958;8.294;2023-03-24T10:56:38;99434.34;;;17.24;69.15
63439;BME280;49567;48.958;8.294;2023-03-24T10:59:25;99444.75;;;17.13;68.87
63439;BME280;49567;48.958;8.294;2023-03-24T11:02:16;99448.22;;;16.83;69.29
63439;BME280;49567;48.958;8.294;2023-03-24T11:04:48;99452.25;;;16.64;69.96
63439;BME280;49567;48.958;8.294;2023-03-24T11:07:18;99455.06;;;16.72;70.97
63439;BME280;49567;48.958;8.294;2023-03-24T11:10:04;99453.50;;;17.77;69.43
63439;BME280;49567;48.958;8.294;2023-03-24T11:12:31;99458.34;;;18.37;66.76
63439;BME280;49567;48.958;8.294;2023-03-24T11:15:24;99450.22;;;17.75;68.49
63439;BME280;49567;48.958;8.294;2023-03-24T11:20:43;99464.91;;;17.18;70.49
63439;BME280;49567;48.958;8.294;2023-03-24T11:23:33;99457.22;;;17.06;71.38
63439;BME280;49567;48.958;8.294;2023-03-24T11:26:21;99469.31;;;17.05;71.16
63439;BME280;49567;48.958;8.294;2023-03-24T11:28:55;99455.94;;;17.03;71.20
63439;BME280;49567;48.958;8.294;2023-03-24T11:31:31;99460.13;;;17.01;70.66
63439;BME280;49567;48.958;8.294;2023-03-24T11:34:18;99474.47;;;17.06;70.97
63439;BME280;49567;48.958;8.294;2023-03-24T11:36:51;99469.56;;;16.95;71.20
63439;BME280;49567;48.958;8.294;2023-03-24T11:49:44;99525.19;;;16.54;71.52
63439;BME280;49567;48.958;8.294;2023-03-24T11:52:23;99516.09;;;16.18;70.23
63439;BME280;49567;48.958;8.294;2023-03-24T11:54:48;99547.44;;;15.66;70.02
63439;BME280;49567;48.958;8.294;2023-03-24T11:57:17;99555.22;;;15.22;71.08
63439;BME280;49567;48.958;8.294;2023-03-24T12:00:26;99573.22;;;14.85;73.75
63439;BME280;49567;48.958;8.294;2023-03-24T12:03:06;99559.38;;;14.63;75.57
63439;BME280;49567;48.958;8.294;2023-03-24T12:05:41;99553.72;;;14.36;76.29
63439;BME280;49567;48.958;8.294;2023-03-24T12:08:30;99562.34;;;14.19;76.30
63439;BME280;49567;48.958;8.294;2023-03-24T12:11:24;99553.75;;;14.07;76.53
63439;BME280;49567;48.958;8.294;2023-03-24T12:13:52;99546.56;;;14.16;77.05
63439;BME280;49567;48.958;8.294;2023-03-24T12:16:23;99544.06;;;14.20;76.98
63439;BME280;49567;48.958;8.294;2023-03-24T12:27:00;99558.97;;;14.03;77.71
63439;BME280;49567;48.958;8.294;2023-03-24T12:32:40;99558.97;;;14.03;77.99
63439;BME280;49567;48.958;8.294;2023-03-24T12:35:24;99554.69;;;13.97;77.95
63439;BME280;49567;48.958;8.294;2023-03-24T12:38:15;99545.66;;;14.02;77.44
63439;BME280;49567;48.958;8.294;2023-03-24T12:41:02;99544.28;;;13.99;77.30
63439;BME280;49567;48.958;8.294;2023-03-24T12:49:08;99544.88;;;13.96;76.79
63439;BME280;49567;48.958;8.294;2023-03-24T12:52:04;99548.31;;;14.07;76.31
63439;BME280;49567;48.958;8.294;2023-03-24T12:57:14;99557.91;;;13.99;76.42
63439;BME280;49567;48.958;8.294;2023-03-24T12:59:46;99553.00;;;14.01;76.20
63439;BME280;49567;48.958;8.294;2023-03-24T13:02:22;99551.84;;;14.08;75.99
63439;BME280;49567;48.958;8.294;2023-03-24T13:04:53;99538.56;;;14.01;77.03
63439;BME280;49567;48.958;8.294;2023-03-24T13:07:22;99545.59;;;14.07;76.91
63439;BME280;49567;48.958;8.294;2023-03-24T13:09:55;99541.47;;;14.10;77.01
63439;BME280;49567;48.958;8.294;2023-03-24T13:12:29;99526.97;;;14.14;76.77
63439;BME280;49567;48.958;8.294;2023-03-24T13:18:00;99531.81;;;14.65;76.07
63439;BME280;49567;48.958;8.294;2023-03-24T13:20:39;99535.63;;;14.64;76.22
63439;BME280;49567;48.958;8.294;2023-03-24T13:26:23;99536.09;;;14.71;75.95
63439;BME280;49567;48.958;8.294;2023-03-24T13:31:31;99536.38;;;14.69;75.83
63439;BME280;49567;48.958;8.294;2023-03-24T13:34:02;99535.94;;;14.81;76.06
63439;BME280;49567;48.958;8.294;2023-03-24T13:36:56;99522.91;;;14.78;75.97
63439;BME280;49567;48.958;8.294;2023-03-24T13:39:25;99516.53;;;14.82;76.21
63439;BME280;49567;48.958;8.294;2023-03-24T13:41:53;99516.56;;;15.01;75.97
63439;BME280;49567;48.958;8.294;2023-03-24T13:44:29;99520.44;;;15.14;76.00
63439;BME280;49567;48.958;8.294;2023-03-24T13:47:08;99519.31;;;15.33;75.29
63439;BME280;49567;48.958;8.294;2023-03-24T13:49:35;99514.47;;;15.44;74.95
63439;BME280;49567;48.958;8.294;2023-03-24T13:52:03;99528.72;;;15.73;74.34
63439;BME280;49567;48.958;8.294;2023-03-24T13:54:28;99539.28;;;15.80;73.42
63439;BME280;49567;48.958;8.294;2023-03-24T13:57:05;99532.28;;;15.74;73.72
63439;BME280;49567;48.958;8.294;2023-03-24T14:13:26;99530.75;;;15.81;74.73
63439;BME280;49567;48.958;8.294;2023-03-24T14:15:55;99534.09;;;15.78;74.88
63439;BME280;49567;48.958;8.294;2023-03-24T14:23:43;99512.75;;;16.35;73.17
63439;BME280;49567;48.958;8.294;2023-03-24T14:26:28;99506.78;;;16.46;72.97
63439;BME280;49567;48.958;8.294;2023-03-24T14:28:55;99495.44;;;16.39;72.69
63439;BME280;49567;48.958;8.294;2023-03-24T14:31:28;99492.59;;;16.31;72.34
63439;BME280;49567;48.958;8.294;2023-03-24T14:36:37;99491.97;;;16.34;72.10
63439;BME280;49567;48.958;8.294;2023-03-24T14:41:36;99492.09;;;16.29;71.44
63439;BME280;49567;48.958;8.294;2023-03-24T14:44:04;99494.34;;;16.27;71.03
63439;BME280;49567;48.958;8.294;2023-03-24T14:46:37;99496.34;;;15.94;70.84
63439;BME280;49567;48.958;8.294;2023-03-24T14:49:30;99493.13;;;15.92;71.04
63439;BME280;49567;48.958;8.294;2023-03-24T14:52:19;99487.88;;;15.95;71.19
63439;BME280;49567;48.958;8.294;2023-03-24T14:54:57;99484.13;;;16.05;71.30
63439;BME280;49567;48.958;8.294;2023-03-24T14:57:33;99488.56;;;16.01;71.20
63439;BME280;49567;48.958;8.294;2023-03-24T15:06:13;99488.28;;;15.89;72.35
63439;BME280;49567;48.958;8.294;2023-03-24T15:08:50;99479.88;;;15.85;72.69
63439;BME280;49567;48.958;8.294;2023-03-24T15:11:19;99479.25;;;15.88;72.73